Time;durP1;ratioP1;P1;durP2;ratioP2;P2;SDS_P1;SDS_P2;PMS_P1;PMS_P2;Temp;Humidity;BMP_temperature;BMP_pressure;BME280_temperature;BME280_humidity;BME280_pressure;Samples;Min_cycle;Max_cycle;Signal;HPM_P1;HPM_P2
2023/02/02 00:00:52;;;;;;;0.00;0.00;;;;;;;10.81;69.36;101804.09;7358986;19;20011;-59
2023/02/02 00:03:18;;;;;;;0.00;0.00;;;;;;;10.83;69.24;101813.66;7357845;19;20002;-58
2023/02/02 00:05:51;;;;;;;0.08;0.08;;;;;;;10.82;69.32;101805.81;7358338;19;20010;-58
2023/02/02 00:08:19;;;;;;;0.10;0.10;;;;;;;10.81;69.30;101810.19;7358270;19;20020;-58
2023/02/02 00:10:44;;;;;;;0.10;0.10;;;;;;;10.79;69.36;101805.81;7358568;19;20026;-57
2023/02/02 00:13:10;;;;;;;0.10;0.10;;;;;;;10.79;69.38;101796.25;7356167;19;20807;-58
2023/02/02 00:15:36;;;;;;;0.10;0.10;;;;;;;10.81;69.49;101806.72;7356171;19;20478;-59
2023/02/02 00:18:02;;;;;;;0.05;0.05;;;;;;;10.79;69.65;101804.09;7358436;19;20015;-58
2023/02/02 00:20:28;;;;;;;0.10;0.10;;;;;;;10.53;69.90;101762.44;7357318;19;20477;-58
2023/02/02 00:22:54;;;;;;;0.05;0.05;;;;;;;10.82;69.99;101811.06;7357520;19;20002;-59
2023/02/02 00:25:19;;;;;;;0.10;0.10;;;;;;;10.61;70.11;101763.28;7356280;19;20006;-57
2023/02/02 00:27:45;;;;;;;0.10;0.10;;;;;;;10.78;70.10;101768.38;7357476;19;20006;-58
2023/02/02 00:30:11;;;;;;;0.08;0.08;;;;;;;10.77;70.03;101798.00;7356880;19;20026;-58
2023/02/02 00:32:36;;;;;;;0.10;0.10;;;;;;;10.86;70.50;101802.31;7360272;19;20027;-57
2023/02/02 00:35:01;;;;;;;0.08;0.08;;;;;;;10.84;70.31;101798.84;7357486;19;20682;-58
2023/02/02 00:37:27;;;;;;;0.10;0.10;;;;;;;10.89;70.29;101823.19;7361052;19;20077;-58
2023/02/02 00:39:52;;;;;;;0.05;0.05;;;;;;;10.89;70.54;101802.28;7355713;19;20018;-56
2023/02/02 00:42:18;;;;;;;0.10;0.10;;;;;;;10.77;70.48;101773.63;7361151;19;20831;-58
2023/02/02 00:47:27;;;;;;;0.08;0.08;;;;;;;10.95;70.54;101812.72;7356895;19;20090;-59
2023/02/02 00:49:53;;;;;;;0.00;0.00;;;;;;;10.96;70.71;101782.22;7358949;19;20015;-58
2023/02/02 00:52:18;;;;;;;0.03;0.03;;;;;;;10.80;70.63;101768.41;7361050;19;20034;-59
2023/02/02 00:54:44;;;;;;;0.10;0.10;;;;;;;10.98;70.95;101791.78;7357185;19;20914;-57
2023/02/02 00:57:13;;;;;;;0.00;0.00;;;;;;;11.02;70.35;101784.78;7358505;19;20831;-59
2023/02/02 00:59:39;;;;;;;0.10;0.10;;;;;;;11.00;70.81;101784.81;7358283;19;20010;-58
2023/02/02 01:02:04;;;;;;;0.10;0.10;;;;;;;10.94;70.61;101784.81;7358680;19;20022;-59
2023/02/02 01:04:30;;;;;;;0.08;0.08;;;;;;;11.00;70.78;101800.50;7356995;19;20848;-59
2023/02/02 01:06:55;;;;;;;0.10;0.10;;;;;;;11.04;70.58;101789.09;7359366;19;20625;-59
2023/02/02 01:09:20;;;;;;;0.10;0.10;;;;;;;11.02;70.63;101782.19;7355411;19;20543;-58
2023/02/02 01:11:46;;;;;;;0.00;0.00;;;;;;;11.02;70.55;101787.41;7360798;19;20011;-57
2023/02/02 01:14:11;;;;;;;0.00;0.00;;;;;;;10.91;70.95;101758.72;7358109;19;20478;-58
2023/02/02 01:16:37;;;;;;;0.00;0.00;;;;;;;11.04;70.77;101786.50;7356421;19;20102;-58
2023/02/02 01:19:02;;;;;;;0.10;0.10;;;;;;;11.10;70.66;101790.81;7357361;19;20100;-59
2023/02/02 01:21:27;;;;;;;0.00;0.00;;;;;;;11.10;70.79;101781.25;7358423;19;20014;-59
2023/02/02 01:23:53;;;;;;;0.10;0.10;;;;;;;11.09;70.68;101769.03;7359110;19;20038;-57
2023/02/02 01:26:18;;;;;;;0.03;0.03;;;;;;;11.13;70.55;101786.44;7356437;19;20837;-59
2023/02/02 01:28:44;;;;;;;0.10;0.10;;;;;;;11.15;70.92;101773.34;7359794;19;20027;-59
2023/02/02 01:31:12;;;;;;;0.00;0.00;;;;;;;11.11;70.57;101767.28;7357200;19;20003;-58
2023/02/02 01:33:38;;;;;;;0.00;0.00;;;;;;;11.16;71.06;101764.66;7360125;19;20045;-58
2023/02/02 01:36:06;;;;;;;0.00;0.00;;;;;;;11.20;70.71;101775.91;7354499;19;20010;-59
2023/02/02 01:38:32;;;;;;;0.03;0.03;;;;;;;11.01;70.99;101728.16;7359347;19;20010;-58
2023/02/02 01:40:58;;;;;;;0.00;0.00;;;;;;;11.18;70.72;101768.09;7355737;19;21247;-59
2023/02/02 01:43:29;;;;;;;0.00;0.00;;;;;;;11.24;70.74;101775.03;7357894;19;20537;-59
2023/02/02 01:45:57;;;;;;;0.10;0.10;;;;;;;11.13;70.64;101748.97;7357182;19;20722;-59
2023/02/02 01:48:33;;;;;;;0.08;0.08;;;;;;;11.12;70.52;101742.88;7355057;19;20011;-59
2023/02/02 01:51:02;;;;;;;0.10;0.10;;;;;;;11.27;70.94;101761.94;7357382;19;20006;-57
2023/02/02 01:53:29;;;;;;;0.00;0.00;;;;;;;11.20;71.08;101752.41;7354611;19;20897;-59
2023/02/02 01:55:55;;;;;;;0.00;0.00;;;;;;;11.26;70.77;101761.06;7358548;19;20662;-59
2023/02/02 01:58:32;;;;;;;0.00;0.00;;;;;;;11.29;70.90;101763.63;7353072;19;20006;-59
2023/02/02 02:00:57;;;;;;;0.00;0.00;;;;;;;11.29;71.13;101747.09;7358279;19;20022;-57
2023/02/02 02:03:33;;;;;;;0.00;0.00;;;;;;;11.32;71.03;101766.25;7355572;19;20010;-59
2023/02/02 02:06:04;;;;;;;0.10;0.10;;;;;;;11.33;71.21;101754.03;7357075;19;20030;-59
2023/02/02 02:08:41;;;;;;;0.00;0.00;;;;;;;11.31;71.37;101750.56;7353003;19;20014;-59
2023/02/02 02:11:06;;;;;;;0.00;0.00;;;;;;;11.33;71.16;101752.28;7355279;19;20006;-59
2023/02/02 02:16:40;;;;;;;0.00;0.00;;;;;;;11.39;71.03;101756.59;7255562;19;2004471;-59
2023/02/02 02:29:03;;;;;;;0.00;0.00;;;;;;;11.43;71.14;101738.25;7246927;19;2004522;-59
2023/02/02 02:31:46;;;;;;;;;;;;;;;11.46;70.31;101741.72;7357046;19;20035;-58
2023/02/02 02:34:36;;;;;;;0.00;0.00;;;;;;;11.44;70.76;101749.56;7356306;19;19982;-59
2023/02/02 02:37:16;;;;;;;0.10;0.10;;;;;;;11.43;71.23;101726.91;7354421;19;20034;-57
2023/02/02 02:39:53;;;;;;;0.00;0.00;;;;;;;11.41;71.19;101729.56;7355623;19;20011;-58
2023/02/02 02:42:23;;;;;;;0.00;0.00;;;;;;;11.31;71.29;101716.59;7355863;19;20035;-57
2023/02/02 02:44:49;;;;;;;0.00;0.00;;;;;;;11.37;71.17;101729.59;7355675;19;20011;-58
2023/02/02 02:47:17;;;;;;;0.05;0.05;;;;;;;11.35;71.69;101723.50;7357701;19;20021;-59
2023/02/02 02:49:47;;;;;;;0.10;0.10;;;;;;;11.36;71.60;101722.63;7354407;19;20007;-59
2023/02/02 02:52:13;;;;;;;0.10;0.10;;;;;;;11.28;71.33;101721.84;7355783;19;20015;-58
2023/02/02 02:54:45;;;;;;;0.10;0.10;;;;;;;11.35;71.59;101739.19;7355372;19;21122;-58
2023/02/02 02:57:48;;;;;;;0.03;0.03;;;;;;;11.40;71.11;101729.53;7356911;19;20046;-56
2023/02/02 03:00:20;;;;;;;0.00;0.00;;;;;;;11.39;71.95;101735.66;7251799;19;2004368;-59
2023/02/02 03:02:48;;;;;;;0.10;0.10;;;;;;;11.41;71.79;101739.16;7358105;19;20086;-58
2023/02/02 03:05:37;;;;;;;0.05;0.05;;;;;;;11.45;71.59;101746.06;7357596;19;20465;-57
2023/02/02 03:08:12;;;;;;;0.00;0.00;;;;;;;11.47;71.83;101739.09;7255874;19;2004472;-59
2023/02/02 03:10:41;;;;;;;0.00;0.00;;;;;;;11.40;71.89;101727.81;7353240;19;20006;-59
2023/02/02 03:13:09;;;;;;;0.05;0.05;;;;;;;11.48;71.97;101739.94;7353012;19;20024;-59
2023/02/02 03:15:35;;;;;;;0.10;0.10;;;;;;;11.37;72.04;101711.28;7356834;19;20015;-59
2023/02/02 03:18:00;;;;;;;0.00;0.00;;;;;;;11.52;71.84;101732.06;7356977;19;20023;-59
2023/02/02 03:20:26;;;;;;;0.08;0.08;;;;;;;11.53;71.88;101731.16;7356109;19;20011;-58
2023/02/02 03:22:51;;;;;;;0.00;0.00;;;;;;;11.51;71.58;101724.25;7356671;19;20006;-59
2023/02/02 03:25:17;;;;;;;0.00;0.00;;;;;;;11.51;71.70;101727.72;7357206;19;20651;-57
2023/02/02 03:27:43;;;;;;;0.10;0.10;;;;;;;11.48;71.85;101714.66;7354541;19;20458;-59
2023/02/02 03:30:11;;;;;;;0.10;0.10;;;;;;;11.59;71.66;101722.38;7354407;19;20110;-59
2023/02/02 03:32:37;;;;;;;0.10;0.10;;;;;;;11.54;71.73;101718.94;7356007;19;20058;-59
2023/02/02 03:35:03;;;;;;;0.10;0.10;;;;;;;11.51;72.11;101719.88;7357784;19;20006;-58
2023/02/02 03:37:29;;;;;;;0.10;0.10;;;;;;;11.58;71.98;101731.13;7354717;19;20066;-58
2023/02/02 03:39:54;;;;;;;0.00;0.00;;;;;;;11.59;72.35;101725.88;7353914;19;20021;-59
2023/02/02 03:42:19;;;;;;;0.10;0.10;;;;;;;11.58;72.17;101721.53;7359927;19;20018;-59
2023/02/02 03:44:45;;;;;;;0.00;0.00;;;;;;;11.55;72.09;101716.31;7361630;19;20021;-57
2023/02/02 03:47:10;;;;;;;0.00;0.00;;;;;;;11.55;72.23;101721.53;7359085;19;20014;-59
2023/02/02 03:49:36;;;;;;;0.10;0.10;;;;;;;11.55;72.23;101726.78;7363628;19;20780;-59
2023/02/02 03:52:03;;;;;;;0.00;0.00;;;;;;;11.54;71.95;101730.28;7360882;19;20007;-58
2023/02/02 03:54:29;;;;;;;;;;;;;;;11.54;71.49;101727.66;7364252;19;20417;-59
2023/02/02 03:56:54;;;;;;;0.10;0.10;;;;;;;11.50;71.84;101728.56;7359550;19;19926;-59
2023/02/02 03:59:19;;;;;;;0.05;0.05;;;;;;;11.34;72.29;101706.06;7359752;19;20007;-59
2023/02/02 04:01:45;;;;;;;0.00;0.00;;;;;;;11.40;72.28;101727.81;7359834;19;20046;-58
2023/02/02 04:04:10;;;;;;;0.00;0.00;;;;;;;11.43;72.13;101740.00;7344445;19;20082;-58
2023/02/02 04:06:36;;;;;;;0.10;0.10;;;;;;;11.36;72.78;101731.34;7362635;19;20018;-59
2023/02/02 04:09:01;;;;;;;0.03;0.03;;;;;;;11.39;72.61;101738.28;7359707;19;20018;-59
2023/02/02 04:11:27;;;;;;;0.10;0.10;;;;;;;11.38;72.71;101731.31;7359225;19;20015;-59
2023/02/02 04:13:52;;;;;;;0.03;0.03;;;;;;;11.32;72.56;101720.94;7362071;19;20012;-59
2023/02/02 04:16:17;;;;;;;0.10;0.10;;;;;;;11.35;73.02;101723.50;7361656;19;20090;-57
2023/02/02 04:18:43;;;;;;;0.00;0.00;;;;;;;11.37;73.12;101722.63;7363046;19;20018;-59
2023/02/02 04:21:08;;;;;;;0.10;0.10;;;;;;;11.37;72.89;101732.22;7346355;19;20068;-58
2023/02/02 04:23:34;;;;;;;0.00;0.00;;;;;;;11.40;72.67;101721.69;7362260;19;20016;-58
2023/02/02 04:26:00;;;;;;;0.10;0.10;;;;;;;11.26;72.74;101703.56;7359900;19;20026;-57
2023/02/02 04:28:26;;;;;;;0.00;0.00;;;;;;;11.32;72.69;101708.72;7363199;19;20006;-59
2023/02/02 04:30:53;;;;;;;0.10;0.10;;;;;;;11.43;72.81;101724.31;7361220;19;20010;-59
2023/02/02 04:33:19;;;;;;;0.03;0.03;;;;;;;11.41;72.81;101726.06;7362047;19;20010;-59
2023/02/02 04:35:45;;;;;;;0.08;0.08;;;;;;;11.43;72.98;101721.69;7358185;19;20429;-58
2023/02/02 04:38:11;;;;;;;0.00;0.00;;;;;;;11.30;72.47;101693.91;7362143;19;20017;-58
2023/02/02 04:40:40;;;;;;;0.00;0.00;;;;;;;11.48;73.03;101719.03;7361020;19;20022;-59
2023/02/02 04:43:05;;;;;;;0.10;0.10;;;;;;;11.09;72.94;101659.25;7364132;19;20011;-58
2023/02/02 04:45:31;;;;;;;0.10;0.10;;;;;;;11.38;72.58;101718.25;7361340;19;20040;-58
2023/02/02 04:47:56;;;;;;;0.10;0.10;;;;;;;11.34;72.97;101711.31;7363103;19;20099;-59
2023/02/02 04:50:22;;;;;;;0.00;0.00;;;;;;;11.44;72.65;101712.94;7362645;19;20014;-59
2023/02/02 04:52:47;;;;;;;0.00;0.00;;;;;;;11.47;72.91;101722.53;7361518;19;20018;-57
2023/02/02 04:55:13;;;;;;;0.10;0.10;;;;;;;11.52;72.60;101739.91;7359146;19;20008;-59
2023/02/02 04:57:38;;;;;;;0.00;0.00;;;;;;;11.53;72.91;101730.31;7360122;19;20645;-59
2023/02/02 05:00:05;;;;;;;0.00;0.00;;;;;;;11.54;72.63;101745.13;7360417;19;20822;-58
2023/02/02 05:02:30;;;;;;;0.10;0.10;;;;;;;11.46;72.89;101736.50;7362188;19;20014;-58
2023/02/02 05:04:55;;;;;;;0.00;0.00;;;;;;;11.54;73.01;101751.22;7361824;19;20506;-59
2023/02/02 05:07:21;;;;;;;0.10;0.10;;;;;;;11.56;72.48;101746.84;7360586;19;20006;-59
2023/02/02 05:09:46;;;;;;;0.10;0.10;;;;;;;11.58;72.83;101742.44;7361241;19;20023;-59
2023/02/02 05:12:12;;;;;;;0.10;0.10;;;;;;;11.59;72.90;101748.56;7361532;19;20042;-59
2023/02/02 05:14:37;;;;;;;0.10;0.10;;;;;;;11.63;72.40;101751.13;7358070;19;20023;-59
2023/02/02 05:17:02;;;;;;;0.08;0.08;;;;;;;11.62;72.75;101749.41;7359878;19;20014;-59
2023/02/02 05:19:28;;;;;;;0.10;0.10;;;;;;;11.61;72.76;101750.28;7359389;19;20089;-59
2023/02/02 05:21:54;;;;;;;0.10;0.10;;;;;;;11.60;72.99;101742.44;7360428;19;20359;-59
2023/02/02 05:24:20;;;;;;;0.10;0.10;;;;;;;11.57;72.46;101745.97;7363133;19;20023;-58
2023/02/02 05:26:45;;;;;;;0.05;0.05;;;;;;;11.57;72.64;101745.97;7359802;19;20570;-59
2023/02/02 05:29:10;;;;;;;0.10;0.10;;;;;;;11.55;73.01;101734.63;7362347;19;20103;-59
2023/02/02 05:31:36;;;;;;;0.10;0.10;;;;;;;11.52;72.44;101729.44;7359547;19;20002;-59
2023/02/02 05:34:01;;;;;;;0.00;0.00;;;;;;;11.50;72.79;101718.09;7357022;19;20011;-58
2023/02/02 05:36:27;;;;;;;0.00;0.00;;;;;;;11.49;72.67;101726.84;7361876;19;20022;-59
2023/02/02 05:38:52;;;;;;;0.00;0.00;;;;;;;11.47;72.97;101733.00;7359912;19;20498;-59
2023/02/02 05:41:18;;;;;;;0.03;0.03;;;;;;;11.41;72.65;101718.22;7359530;19;20006;-58
2023/02/02 05:43:43;;;;;;;0.08;0.08;;;;;;;11.42;73.25;101730.41;7361719;19;20002;-59
2023/02/02 05:46:10;;;;;;;0.00;0.00;;;;;;;11.38;72.81;101721.72;7359154;19;20002;-60
2023/02/02 05:48:35;;;;;;;0.00;0.00;;;;;;;11.43;72.95;101729.53;7362157;19;20009;-59
2023/02/02 05:51:11;;;;;;;0.00;0.00;;;;;;;11.42;73.05;101719.97;7358735;19;20512;-59
2023/02/02 05:53:36;;;;;;;0.00;0.00;;;;;;;11.41;73.10;101731.31;7359834;19;20143;-58
2023/02/02 05:56:02;;;;;;;0.00;0.00;;;;;;;11.41;72.88;101720.84;7360091;19;26137;-59
2023/02/02 05:58:27;;;;;;;0.10;0.10;;;;;;;11.36;73.26;101720.03;7358502;19;20010;-59
2023/02/02 06:00:53;;;;;;;0.10;0.10;;;;;;;11.41;73.16;101720.84;7360103;19;20010;-59
2023/02/02 06:03:19;;;;;;;0.08;0.08;;;;;;;11.30;72.79;101702.63;7361840;19;20010;-59
2023/02/02 06:05:45;;;;;;;0.00;0.00;;;;;;;11.42;73.21;101725.19;7357432;19;21373;-59
2023/02/02 06:08:10;;;;;;;0.00;0.00;;;;;;;11.31;72.94;101704.38;7360938;19;20022;-59
2023/02/02 06:10:39;;;;;;;0.00;0.00;;;;;;;11.43;72.97;101719.94;7360697;19;20095;-59
2023/02/02 06:13:04;;;;;;;0.10;0.10;;;;;;;11.33;73.24;101726.13;7359948;19;20369;-59
2023/02/02 06:15:31;;;;;;;0.10;0.10;;;;;;;11.41;73.32;101728.69;7360837;19;21306;-59
2023/02/02 06:17:57;;;;;;;0.10;0.10;;;;;;;11.40;72.88;101726.94;7356219;19;20014;-57
2023/02/02 06:20:23;;;;;;;0.03;0.03;;;;;;;11.25;73.04;101695.69;7360341;19;20041;-59
2023/02/02 06:22:48;;;;;;;0.05;0.05;;;;;;;11.29;73.72;101723.56;7357703;19;20025;-59
2023/02/02 06:25:13;;;;;;;0.10;0.10;;;;;;;11.32;73.44;101726.16;7360675;19;20010;-59
2023/02/02 06:27:39;;;;;;;0.03;0.03;;;;;;;11.32;73.28;101732.25;7358133;19;20014;-59
2023/02/02 06:30:05;;;;;;;0.10;0.10;;;;;;;11.20;73.58;101714.03;7359068;19;20013;-59
2023/02/02 06:32:30;;;;;;;0.10;0.10;;;;;;;11.29;73.34;101734.00;7361289;19;20689;-58
2023/02/02 06:34:55;;;;;;;0.00;0.00;;;;;;;11.25;73.64;101716.63;7359158;19;20029;-59
2023/02/02 06:37:21;;;;;;;0.00;0.00;;;;;;;11.27;73.69;101734.03;7359888;19;20014;-59
2023/02/02 06:39:46;;;;;;;0.10;0.10;;;;;;;11.25;73.86;101721.84;7360653;19;20011;-58
2023/02/02 06:42:12;;;;;;;0.00;0.00;;;;;;;11.25;73.48;101721.84;7360376;19;20805;-57
2023/02/02 06:44:37;;;;;;;0.10;0.10;;;;;;;11.24;73.75;101714.88;7356559;19;20630;-59
2023/02/02 06:47:03;;;;;;;0.10;0.10;;;;;;;11.24;73.44;101710.53;7357078;19;20003;-60
2023/02/02 06:49:28;;;;;;;0.10;0.10;;;;;;;11.08;73.43;101707.19;7359963;19;20054;-59
2023/02/02 06:51:53;;;;;;;0.10;0.10;;;;;;;11.22;73.49;101727.97;7358821;19;20021;-59
2023/02/02 06:54:19;;;;;;;0.00;0.00;;;;;;;11.21;73.35;101714.94;7358123;19;20024;-59
2023/02/02 06:56:44;;;;;;;0.00;0.00;;;;;;;11.13;73.64;101718.47;7358829;19;20010;-59
2023/02/02 06:59:09;;;;;;;0.00;0.00;;;;;;;11.15;73.01;101721.94;7348084;19;20494;-59
2023/02/02 07:01:35;;;;;;;0.10;0.10;;;;;;;11.16;73.52;101747.22;7356733;19;20022;-59
2023/02/02 07:04:00;;;;;;;0.10;0.10;;;;;;;11.16;73.14;101748.97;7357564;19;20851;-59
2023/02/02 07:06:27;;;;;;;0.10;0.10;;;;;;;11.14;73.67;101746.34;7353621;19;20007;-58
2023/02/02 07:08:54;;;;;;;0.00;0.00;;;;;;;11.14;73.63;101743.72;7357124;19;20025;-59
2023/02/02 07:11:20;;;;;;;0.10;0.10;;;;;;;11.13;73.42;101744.59;7357050;19;20752;-58
2023/02/02 07:13:47;;;;;;;0.03;0.03;;;;;;;11.14;73.30;101735.88;7354283;19;20007;-59
2023/02/02 07:16:14;;;;;;;0.10;0.10;;;;;;;11.14;73.38;101735.88;7357619;19;20016;-59
2023/02/02 07:18:42;;;;;;;0.00;0.00;;;;;;;11.16;73.41;101749.81;7363875;19;20051;-59
2023/02/02 07:21:08;;;;;;;0.00;0.00;;;;;;;11.17;73.19;101745.47;7359617;19;21192;-59
2023/02/02 07:23:34;;;;;;;0.00;0.00;;;;;;;11.10;73.15;101728.97;7361021;19;20065;-59
2023/02/02 07:26:04;;;;;;;0.00;0.00;;;;;;;11.20;73.21;101734.09;7363233;19;20014;-57
2023/02/02 07:28:29;;;;;;;0.10;0.10;;;;;;;11.16;73.19;101747.22;7357092;19;20014;-59
2023/02/02 07:30:55;;;;;;;0.03;0.03;;;;;;;11.17;73.08;101741.09;7363784;19;20014;-59
2023/02/02 07:33:20;;;;;;;0.00;0.00;;;;;;;11.16;72.97;101726.28;7358488;19;20861;-59
2023/02/02 07:35:46;;;;;;;0.05;0.05;;;;;;;11.20;72.98;101728.88;7364411;19;20087;-59
2023/02/02 07:38:11;;;;;;;0.10;0.10;;;;;;;11.17;72.51;101730.63;7362120;19;21112;-58
2023/02/02 07:40:37;;;;;;;0.10;0.10;;;;;;;11.17;72.52;101735.88;7351206;19;20010;-59
2023/02/02 07:43:02;;;;;;;0.00;0.00;;;;;;;11.20;72.38;101740.19;7358984;19;20011;-59
2023/02/02 07:45:28;;;;;;;0.10;0.10;;;;;;;11.13;72.50;101728.06;7362570;19;20044;-59
2023/02/02 07:47:57;;;;;;;0.10;0.10;;;;;;;11.15;72.72;101737.63;7363246;19;20559;-59
2023/02/02 07:50:24;;;;;;;0.05;0.05;;;;;;;11.18;72.76;101737.59;7363081;19;20015;-59
2023/02/02 07:52:50;;;;;;;0.10;0.10;;;;;;;11.21;72.74;101720.16;7361631;19;20014;-58
2023/02/02 07:55:16;;;;;;;0.10;0.10;;;;;;;11.21;72.52;101735.84;7363892;19;20082;-58
2023/02/02 07:57:41;;;;;;;0.10;0.10;;;;;;;11.10;72.41;101704.53;7362843;19;20111;-59
2023/02/02 08:00:08;;;;;;;0.00;0.00;;;;;;;11.21;72.53;101741.94;7358544;19;20014;-58
2023/02/02 08:02:33;;;;;;;0.00;0.00;;;;;;;11.20;72.23;101718.41;7364217;19;20018;-59
2023/02/02 08:04:59;;;;;;;0.10;0.10;;;;;;;11.15;72.48;101721.94;7342395;19;20019;-59
2023/02/02 08:07:24;;;;;;;0.00;0.00;;;;;;;11.15;72.64;101721.94;7365469;19;20014;-59
2023/02/02 08:09:50;;;;;;;0.10;0.10;;;;;;;11.10;72.29;101728.06;7359159;19;20017;-58
2023/02/02 08:12:16;;;;;;;0.10;0.10;;;;;;;10.98;72.51;101705.53;7363432;19;20015;-57
2023/02/02 08:14:41;;;;;;;0.10;0.10;;;;;;;11.00;72.35;101711.63;7358525;19;20006;-59
2023/02/02 08:17:07;;;;;;;0.10;0.10;;;;;;;11.07;72.63;101723.75;7362299;19;20094;-59
2023/02/02 08:19:32;;;;;;;0.10;0.10;;;;;;;11.08;72.85;101729.84;7360242;19;20010;-57
2023/02/02 08:21:58;;;;;;;0.10;0.10;;;;;;;11.05;72.84;101725.53;7361154;19;20035;-59
2023/02/02 08:24:23;;;;;;;0.00;0.00;;;;;;;11.07;72.57;101734.22;7361018;19;20022;-59
2023/02/02 08:26:49;;;;;;;0.05;0.05;;;;;;;11.07;72.41;101728.97;7364659;19;20014;-59
2023/02/02 08:29:16;;;;;;;0.00;0.00;;;;;;;11.08;72.65;101741.16;7359814;19;20011;-59
2023/02/02 08:31:43;;;;;;;0.10;0.10;;;;;;;11.09;72.46;101724.59;7353831;19;20021;-59
2023/02/02 08:34:10;;;;;;;0.00;0.00;;;;;;;11.06;72.33;101737.72;7359997;19;20015;-57
2023/02/02 08:36:36;;;;;;;0.10;0.10;;;;;;;11.09;72.50;101728.97;7361062;19;20368;-58
2023/02/02 08:39:04;;;;;;;0.10;0.10;;;;;;;11.11;72.85;101738.53;7363184;19;20024;-58
2023/02/02 08:41:30;;;;;;;0.00;0.00;;;;;;;11.10;72.85;101728.97;7346053;19;20018;-58
2023/02/02 08:43:55;;;;;;;0.10;0.10;;;;;;;11.14;72.35;101730.66;7361552;19;20097;-59
2023/02/02 08:46:21;;;;;;;0.10;0.10;;;;;;;11.18;72.30;101742.81;7361344;19;20003;-58
2023/02/02 08:48:47;;;;;;;0.10;0.10;;;;;;;11.21;72.40;101746.31;7360698;19;20082;-59
2023/02/02 08:51:15;;;;;;;0.10;0.10;;;;;;;11.25;72.15;101732.31;7358845;19;20003;-58
2023/02/02 08:53:42;;;;;;;0.10;0.10;;;;;;;11.26;72.09;101740.16;7362807;19;20948;-58
2023/02/02 08:56:13;;;;;;;0.10;0.10;;;;;;;11.29;72.07;101731.41;7358310;19;20018;-57
2023/02/02 08:58:42;;;;;;;0.10;0.10;;;;;;;11.16;71.79;101702.75;7361755;19;20019;-59
2023/02/02 09:01:19;;;;;;;0.00;0.00;;;;;;;11.36;71.84;101725.25;7361603;19;20014;-59
2023/02/02 09:03:44;;;;;;;0.10;0.10;;;;;;;11.36;71.57;101725.25;7363314;19;20432;-59
2023/02/02 09:06:13;;;;;;;0.10;0.10;;;;;;;11.42;71.41;101735.66;7363175;19;20027;-58
2023/02/02 09:08:39;;;;;;;0.00;0.00;;;;;;;11.35;71.13;101737.47;7361395;19;20010;-59
2023/02/02 09:11:14;;;;;;;0.10;0.10;;;;;;;11.49;70.74;101732.06;7360686;19;20034;-59
2023/02/02 09:13:41;;;;;;;0.10;0.10;;;;;;;11.48;70.50;101732.97;7355877;19;20774;-59
2023/02/02 09:16:09;;;;;;;0.10;0.10;;;;;;;11.35;70.83;101705.19;7354713;19;20046;-59
2023/02/02 09:18:35;;;;;;;0.10;0.10;;;;;;;11.56;70.61;101739.00;7361326;19;20036;-60
2023/02/02 09:21:04;;;;;;;0.05;0.05;;;;;;;11.60;70.56;101727.59;7352048;19;20684;-59
2023/02/02 09:23:33;;;;;;;0.10;0.10;;;;;;;11.60;70.37;101737.19;7356487;19;20473;-59
2023/02/02 09:26:10;;;;;;;0.00;0.00;;;;;;;11.65;70.52;101744.09;7359856;19;20025;-57
2023/02/02 09:28:36;;;;;;;0.00;0.00;;;;;;;11.67;70.20;101744.13;7361758;19;20074;-59
2023/02/02 09:31:01;;;;;;;0.10;0.10;;;;;;;11.54;70.05;101727.66;7359813;19;20010;-59
2023/02/02 09:33:27;;;;;;;0.10;0.10;;;;;;;11.60;70.25;101755.50;7359890;19;20098;-60
2023/02/02 09:35:52;;;;;;;0.00;0.00;;;;;;;11.71;70.07;101753.69;7359856;19;20011;-59
2023/02/02 09:38:17;;;;;;;0.10;0.10;;;;;;;11.74;70.09;101758.00;7352515;19;20024;-57
2023/02/02 09:40:43;;;;;;;0.10;0.10;;;;;;;11.74;70.24;101737.91;7353240;19;20006;-59
2023/02/02 09:43:56;;;;;;;0.10;0.10;;;;;;;11.82;70.24;101759.69;7353172;19;20002;-58
2023/02/02 09:46:50;;;;;;;0.03;0.03;;;;;;;11.82;70.14;101756.22;7252222;19;2004470;-57
2023/02/02 09:49:27;;;;;;;0.10;0.10;;;;;;;11.82;69.83;101771.91;7252025;19;2004291;-58
2023/02/02 09:52:00;;;;;;;0.10;0.10;;;;;;;11.86;69.47;101764.00;7353169;19;20070;-58
2023/02/02 09:54:49;;;;;;;0.05;0.05;;;;;;;11.90;69.31;101784.00;7356681;19;20003;-58
2023/02/02 09:57:22;;;;;;;0.00;0.00;;;;;;;11.91;69.44;101777.03;7353429;19;20017;-58
2023/02/02 09:59:51;;;;;;;0.08;0.08;;;;;;;11.93;69.72;101780.50;7350949;19;20014;-59
2023/02/02 10:02:44;;;;;;;0.00;0.00;;;;;;;11.96;69.81;101793.53;7331478;19;20047;-59
2023/02/02 10:05:20;;;;;;;0.08;0.08;;;;;;;11.97;69.82;101792.69;7348480;19;20070;-59
2023/02/02 10:07:52;;;;;;;0.10;0.10;;;;;;;12.01;69.22;101785.63;7346766;19;20014;-59
2023/02/02 10:10:32;;;;;;;0.10;0.10;;;;;;;12.03;69.66;101784.75;7349673;19;20462;-56
2023/02/02 10:13:20;;;;;;;0.10;0.10;;;;;;;12.04;69.56;101799.56;7344541;19;20811;-58
2023/02/02 10:16:11;;;;;;;0.00;0.00;;;;;;;12.09;69.33;101786.44;7349774;19;20009;-59
2023/02/02 10:19:08;;;;;;;0.10;0.10;;;;;;;12.14;69.35;101789.88;7347201;19;20121;-59
2023/02/02 10:22:03;;;;;;;0.10;0.10;;;;;;;12.11;69.16;101800.34;7244341;19;2004413;-59
2023/02/02 10:24:30;;;;;;;0.00;0.00;;;;;;;12.15;68.92;101807.31;7245383;19;2004346;-59
2023/02/02 10:27:03;;;;;;;0.10;0.10;;;;;;;12.09;68.91;101792.53;7343860;19;20025;-58
2023/02/02 10:29:55;;;;;;;0.10;0.10;;;;;;;12.26;68.73;101794.06;7338852;19;20014;-57
2023/02/02 10:32:24;;;;;;;0.10;0.10;;;;;;;12.27;68.62;101796.69;7241789;19;2004272;-58
2023/02/02 10:34:55;;;;;;;0.00;0.00;;;;;;;12.30;68.97;101801.88;7344298;19;21389;-56
2023/02/02 10:37:40;;;;;;;0.10;0.10;;;;;;;12.36;68.63;101822.75;7338720;19;20013;-58
2023/02/02 10:40:31;;;;;;;0.10;0.10;;;;;;;12.39;68.23;101816.63;7341020;19;20014;-58
2023/02/02 10:43:47;;;;;;;0.00;0.00;;;;;;;12.41;68.20;101815.72;7240041;19;2004458;-58
2023/02/02 10:46:15;;;;;;;0.10;0.10;;;;;;;12.39;68.50;101816.63;7239578;19;2005251;-58
2023/02/02 10:48:45;;;;;;;0.10;0.10;;;;;;;12.26;68.32;101788.84;7342086;19;20022;-58
2023/02/02 10:51:18;;;;;;;0.00;0.00;;;;;;;12.40;68.73;101813.13;7342523;19;20909;-59
2023/02/02 10:53:50;;;;;;;0.10;0.10;;;;;;;12.40;68.85;101811.34;7348164;19;20021;-58
2023/02/02 10:56:20;;;;;;;0.03;0.03;;;;;;;12.41;68.35;101809.59;7348250;19;20565;-57
2023/02/02 10:59:06;;;;;;;0.03;0.03;;;;;;;12.44;68.65;101818.31;7343808;19;20442;-59
2023/02/02 11:01:31;;;;;;;0.00;0.00;;;;;;;12.47;68.14;101809.56;7345717;19;20454;-59
2023/02/02 11:06:50;;;;;;;0.10;0.10;;;;;;;12.48;68.55;101816.53;7349067;19;20013;-59
2023/02/02 11:09:20;;;;;;;0.00;0.00;;;;;;;12.53;68.44;101808.59;7352751;19;20007;-59
2023/02/02 11:11:50;;;;;;;0.10;0.10;;;;;;;12.54;68.33;101803.34;7353413;19;20022;-58
2023/02/02 11:14:42;;;;;;;0.10;0.10;;;;;;;12.55;68.37;101791.97;7347026;19;20470;-59
2023/02/02 11:17:21;;;;;;;0.10;0.10;;;;;;;12.61;68.61;101818.06;7351206;19;20026;-59
2023/02/02 11:19:48;;;;;;;0.10;0.10;;;;;;;12.59;68.72;101806.75;7351478;19;20019;-58
2023/02/02 11:22:27;;;;;;;0.10;0.10;;;;;;;12.65;68.65;101809.28;7350097;19;20011;-58
2023/02/02 11:24:54;;;;;;;0.08;0.08;;;;;;;12.56;68.40;101783.19;7352819;19;21286;-58
2023/02/02 11:27:27;;;;;;;0.03;0.03;;;;;;;12.75;67.66;101804.78;7354436;19;20870;-59
2023/02/02 11:29:56;;;;;;;0.10;0.10;;;;;;;12.76;67.22;101800.41;7347390;19;20010;-59
2023/02/02 11:32:24;;;;;;;0.10;0.10;;;;;;;12.78;67.32;101812.63;7354472;19;20018;-59
2023/02/02 11:35:22;;;;;;;0.00;0.00;;;;;;;12.81;67.51;101803.84;7350543;19;20010;-59
2023/02/02 11:38:13;;;;;;;0.00;0.00;;;;;;;12.78;67.00;101803.91;7250433;19;2004288;-58
2023/02/02 11:40:44;;;;;;;0.00;0.00;;;;;;;12.82;66.65;101800.31;7350075;19;20019;-59
2023/02/02 11:43:19;;;;;;;0.10;0.10;;;;;;;12.85;66.89;101802.91;7349004;19;20074;-59
2023/02/02 11:45:52;;;;;;;0.10;0.10;;;;;;;12.83;67.03;101800.31;7349395;19;20473;-58
2023/02/02 11:48:20;;;;;;;0.00;0.00;;;;;;;12.87;67.23;101788.88;7350229;19;20019;-56
2023/02/02 11:50:52;;;;;;;0.00;0.00;;;;;;;12.91;66.84;101793.19;7347037;19;20021;-59